sensor_id;sensor_type;location;lat;lon;timestamp;temperature;humidity
9808;DHT22;4943;52.550;13.462;2022-10-31T00:01:16;15.00;99.90
9808;DHT22;4943;52.550;13.462;2022-10-31T00:03:45;14.90;99.90
9808;DHT22;4943;52.550;13.462;2022-10-31T00:06:14;15.00;99.90
9808;DHT22;4943;52.550;13.462;2022-10-31T00:08:45;14.90;99.90
9808;DHT22;4943;52.550;13.462;2022-10-31T00:11:13;14.90;99.90
9808;DHT22;4943;52.550;13.462;2022-10-31T00:13:41;14.90;99.90
9808;DHT22;4943;52.550;13.462;2022-10-31T00:16:15;14.90;99.90
9808;DHT22;4943;52.550;13.462;2022-10-31T00:18:43;14.90;99.90
9808;DHT22;4943;52.550;13.462;2022-10-31T00:21:12;14.90;99.90
9808;DHT22;4943;52.550;13.462;2022-10-31T00:23:40;14.90;99.90
9808;DHT22;4943;52.550;13.462;2022-10-31T00:26:09;14.80;99.90
9808;DHT22;4943;52.550;13.462;2022-10-31T00:28:37;14.80;99.90
9808;DHT22;4943;52.550;13.462;2022-10-31T00:31:07;14.80;99.90
9808;DHT22;4943;52.550;13.462;2022-10-31T00:33:38;14.80;99.90
9808;DHT22;4943;52.550;13.462;2022-10-31T00:36:11;14.80;99.90
9808;DHT22;4943;52.550;13.462;2022-10-31T00:38:40;14.80;99.90
9808;DHT22;4943;52.550;13.462;2022-10-31T00:41:08;14.80;99.90
9808;DHT22;4943;52.550;13.462;2022-10-31T00:43:37;14.80;99.90
9808;DHT22;4943;52.550;13.462;2022-10-31T00:46:05;14.80;99.90
9808;DHT22;4943;52.550;13.462;2022-10-31T00:48:34;14.80;99.90
9808;DHT22;4943;52.550;13.462;2022-10-31T00:51:03;14.80;99.90
9808;DHT22;4943;52.550;13.462;2022-10-31T00:53:32;14.70;99.90
9808;DHT22;4943;52.550;13.462;2022-10-31T00:56:00;14.80;99.90
9808;DHT22;4943;52.550;13.462;2022-10-31T00:58:28;14.70;99.90
9808;DHT22;4943;52.550;13.462;2022-10-31T01:00:57;14.70;99.90
9808;DHT22;4943;52.550;13.462;2022-10-31T01:03:26;14.70;99.90
9808;DHT22;4943;52.550;13.462;2022-10-31T01:05:56;14.70;99.90
9808;DHT22;4943;52.550;13.462;2022-10-31T01:08:26;14.70;99.90
9808;DHT22;4943;52.550;13.462;2022-10-31T01:11:03;14.70;99.90
9808;DHT22;4943;52.550;13.462;2022-10-31T01:13:32;14.70;99.90
9808;DHT22;4943;52.550;13.462;2022-10-31T01:16:02;14.70;99.90
9808;DHT22;4943;52.550;13.462;2022-10-31T01:18:31;14.70;99.90
9808;DHT22;4943;52.550;13.462;2022-10-31T01:21:00;14.70;99.90
9808;DHT22;4943;52.550;13.462;2022-10-31T01:23:31;14.70;99.90
9808;DHT22;4943;52.550;13.462;2022-10-31T01:26:02;14.70;99.90
9808;DHT22;4943;52.550;13.462;2022-10-31T01:28:31;14.70;99.90
9808;DHT22;4943;52.550;13.462;2022-10-31T01:31:02;14.70;99.90
9808;DHT22;4943;52.550;13.462;2022-10-31T01:33:30;14.70;99.90
9808;DHT22;4943;52.550;13.462;2022-10-31T01:35:58;14.60;99.90
9808;DHT22;4943;52.550;13.462;2022-10-31T01:38:27;14.60;99.90
9808;DHT22;4943;52.550;13.462;2022-10-31T01:40:58;14.60;99.90
9808;DHT22;4943;52.550;13.462;2022-10-31T01:43:42;14.60;99.90
9808;DHT22;4943;52.550;13.462;2022-10-31T01:46:11;14.60;99.90
9808;DHT22;4943;52.550;13.462;2022-10-31T01:48:40;14.50;99.90
9808;DHT22;4943;52.550;13.462;2022-10-31T01:51:11;14.50;99.90
9808;DHT22;4943;52.550;13.462;2022-10-31T01:53:42;14.50;99.90
9808;DHT22;4943;52.550;13.462;2022-10-31T01:56:13;14.50;99.90
9808;DHT22;4943;52.550;13.462;2022-10-31T01:58:42;14.50;99.90
9808;DHT22;4943;52.550;13.462;2022-10-31T02:01:10;14.50;99.90
9808;DHT22;4943;52.550;13.462;2022-10-31T02:03:40;14.50;99.90
9808;DHT22;4943;52.550;13.462;2022-10-31T02:06:13;14.50;99.90
9808;DHT22;4943;52.550;13.462;2022-10-31T02:08:43;14.50;99.90
9808;DHT22;4943;52.550;13.462;2022-10-31T02:11:14;14.40;99.90
9808;DHT22;4943;52.550;13.462;2022-10-31T02:13:43;14.40;99.90
9808;DHT22;4943;52.550;13.462;2022-10-31T02:16:11;14.40;99.90
9808;DHT22;4943;52.550;13.462;2022-10-31T02:18:40;14.40;99.90
9808;DHT22;4943;52.550;13.462;2022-10-31T02:21:15;14.40;99.90
9808;DHT22;4943;52.550;13.462;2022-10-31T02:24:07;14.40;99.90
9808;DHT22;4943;52.550;13.462;2022-10-31T02:26:50;14.40;99.90
9808;DHT22;4943;52.550;13.462;2022-10-31T02:29:47;14.40;99.90
9808;DHT22;4943;52.550;13.462;2022-10-31T02:32:27;14.40;99.90
9808;DHT22;4943;52.550;13.462;2022-10-31T02:35:01;14.40;99.90
9808;DHT22;4943;52.550;13.462;2022-10-31T02:37:36;14.30;99.90
9808;DHT22;4943;52.550;13.462;2022-10-31T02:40:12;14.40;99.90
9808;DHT22;4943;52.550;13.462;2022-10-31T02:42:49;14.30;99.90
9808;DHT22;4943;52.550;13.462;2022-10-31T02:45:25;14.30;99.90
9808;DHT22;4943;52.550;13.462;2022-10-31T02:48:01;14.30;99.90
9808;DHT22;4943;52.550;13.462;2022-10-31T02:50:32;14.30;99.90
9808;DHT22;4943;52.550;13.462;2022-10-31T02:53:02;14.30;99.90
9808;DHT22;4943;52.550;13.462;2022-10-31T02:55:47;14.30;99.90
9808;DHT22;4943;52.550;13.462;2022-10-31T02:58:20;14.30;99.90
9808;DHT22;4943;52.550;13.462;2022-10-31T03:01:10;14.20;99.90
9808;DHT22;4943;52.550;13.462;2022-10-31T03:03:57;14.20;99.90
9808;DHT22;4943;52.550;13.462;2022-10-31T03:06:33;14.20;99.90
9808;DHT22;4943;52.550;13.462;2022-10-31T03:09:07;14.20;99.90
9808;DHT22;4943;52.550;13.462;2022-10-31T03:11:46;14.20;99.90
9808;DHT22;4943;52.550;13.462;2022-10-31T03:14:23;14.20;99.90
9808;DHT22;4943;52.550;13.462;2022-10-31T03:16:55;14.10;99.90
9808;DHT22;4943;52.550;13.462;2022-10-31T03:19:29;14.20;99.90
9808;DHT22;4943;52.550;13.462;2022-10-31T03:22:00;14.20;99.90
9808;DHT22;4943;52.550;13.462;2022-10-31T03:24:31;14.20;99.90
9808;DHT22;4943;52.550;13.462;2022-10-31T03:27:00;14.20;99.90
9808;DHT22;4943;52.550;13.462;2022-10-31T03:29:33;14.10;99.90
9808;DHT22;4943;52.550;13.462;2022-10-31T03:32:06;14.10;99.90
9808;DHT22;4943;52.550;13.462;2022-10-31T03:34:38;14.10;99.90
9808;DHT22;4943;52.550;13.462;2022-10-31T03:37:10;14.10;99.90
9808;DHT22;4943;52.550;13.462;2022-10-31T03:39:41;14.00;99.90
9808;DHT22;4943;52.550;13.462;2022-10-31T03:42:12;14.10;99.90
9808;DHT22;4943;52.550;13.462;2022-10-31T03:44:45;14.10;99.90
9808;DHT22;4943;52.550;13.462;2022-10-31T03:47:15;14.00;99.90
9808;DHT22;4943;52.550;13.462;2022-10-31T03:49:45;14.10;99.90
9808;DHT22;4943;52.550;13.462;2022-10-31T03:52:19;14.10;99.90
9808;DHT22;4943;52.550;13.462;2022-10-31T03:54:53;14.10;99.90
9808;DHT22;4943;52.550;13.462;2022-10-31T03:57:26;14.20;99.90
9808;DHT22;4943;52.550;13.462;2022-10-31T03:59:58;14.20;99.90
9808;DHT22;4943;52.550;13.462;2022-10-31T04:02:30;14.30;99.90
9808;DHT22;4943;52.550;13.462;2022-10-31T04:05:02;14.30;99.90
9808;DHT22;4943;52.550;13.462;2022-10-31T04:07:33;14.40;99.90
9808;DHT22;4943;52.550;13.462;2022-10-31T04:10:06;14.40;99.90
9808;DHT22;4943;52.550;13.462;2022-10-31T04:12:37;14.40;99.90
9808;DHT22;4943;52.550;13.462;2022-10-31T04:15:07;14.50;99.90
9808;DHT22;4943;52.550;13.462;2022-10-31T04:17:40;14.50;99.90
9808;DHT22;4943;52.550;13.462;2022-10-31T04:20:15;14.50;99.90
9808;DHT22;4943;52.550;13.462;2022-10-31T04:22:45;14.50;99.90
9808;DHT22;4943;52.550;13.462;2022-10-31T04:25:14;14.60;99.90
9808;DHT22;4943;52.550;13.462;2022-10-31T04:27:42;14.60;99.90
9808;DHT22;4943;52.550;13.462;2022-10-31T04:30:11;14.60;99.90
9808;DHT22;4943;52.550;13.462;2022-10-31T04:32:39;14.60;99.90
9808;DHT22;4943;52.550;13.462;2022-10-31T04:35:08;14.60;99.90
9808;DHT22;4943;52.550;13.462;2022-10-31T04:37:38;14.60;99.90
9808;DHT22;4943;52.550;13.462;2022-10-31T04:40:08;14.70;99.90
9808;DHT22;4943;52.550;13.462;2022-10-31T04:42:36;14.60;99.90
9808;DHT22;4943;52.550;13.462;2022-10-31T04:45:05;14.60;99.90
9808;DHT22;4943;52.550;13.462;2022-10-31T04:47:34;14.70;99.90
9808;DHT22;4943;52.550;13.462;2022-10-31T04:50:02;14.70;99.90
9808;DHT22;4943;52.550;13.462;2022-10-31T04:52:32;14.70;99.90
9808;DHT22;4943;52.550;13.462;2022-10-31T04:55:08;14.70;99.90
9808;DHT22;4943;52.550;13.462;2022-10-31T04:57:40;14.60;99.90
9808;DHT22;4943;52.550;13.462;2022-10-31T05:00:10;14.60;99.90
9808;DHT22;4943;52.550;13.462;2022-10-31T05:02:45;14.60;99.90
9808;DHT22;4943;52.550;13.462;2022-10-31T05:05:15;14.60;99.90
9808;DHT22;4943;52.550;13.462;2022-10-31T05:07:45;14.60;99.90
9808;DHT22;4943;52.550;13.462;2022-10-31T05:10:18;14.60;99.90
9808;DHT22;4943;52.550;13.462;2022-10-31T05:12:47;14.60;99.90
9808;DHT22;4943;52.550;13.462;2022-10-31T05:15:17;14.60;99.90
9808;DHT22;4943;52.550;13.462;2022-10-31T05:17:45;14.60;99.90
9808;DHT22;4943;52.550;13.462;2022-10-31T05:20:15;14.60;99.90
9808;DHT22;4943;52.550;13.462;2022-10-31T05:22:43;14.60;99.90
9808;DHT22;4943;52.550;13.462;2022-10-31T05:25:12;14.60;99.90
9808;DHT22;4943;52.550;13.462;2022-10-31T05:27:43;14.60;99.90
9808;DHT22;4943;52.550;13.462;2022-10-31T05:30:14;14.60;99.90
9808;DHT22;4943;52.550;13.462;2022-10-31T05:32:44;14.50;99.90
9808;DHT22;4943;52.550;13.462;2022-10-31T05:35:14;14.50;99.90
9808;DHT22;4943;52.550;13.462;2022-10-31T05:37:44;14.50;99.90
9808;DHT22;4943;52.550;13.462;2022-10-31T05:40:13;14.60;99.90
9808;DHT22;4943;52.550;13.462;2022-10-31T05:42:44;14.50;99.90
9808;DHT22;4943;52.550;13.462;2022-10-31T05:45:14;14.50;99.90
9808;DHT22;4943;52.550;13.462;2022-10-31T05:47:49;14.50;99.90
9808;DHT22;4943;52.550;13.462;2022-10-31T05:50:17;14.50;99.90
9808;DHT22;4943;52.550;13.462;2022-10-31T05:52:46;14.50;99.90
9808;DHT22;4943;52.550;13.462;2022-10-31T05:55:14;14.60;99.90
9808;DHT22;4943;52.550;13.462;2022-10-31T05:57:44;14.60;99.90
9808;DHT22;4943;52.550;13.462;2022-10-31T06:00:13;14.60;99.90
9808;DHT22;4943;52.550;13.462;2022-10-31T06:02:42;14.60;99.90
9808;DHT22;4943;52.550;13.462;2022-10-31T06:05:10;14.60;99.90
9808;DHT22;4943;52.550;13.462;2022-10-31T06:07:39;14.60;99.90
9808;DHT22;4943;52.550;13.462;2022-10-31T06:10:08;14.60;99.90
9808;DHT22;4943;52.550;13.462;2022-10-31T06:12:37;14.60;99.90
9808;DHT22;4943;52.550;13.462;2022-10-31T06:15:09;14.60;99.90
9808;DHT22;4943;52.550;13.462;2022-10-31T06:17:38;14.70;99.90
9808;DHT22;4943;52.550;13.462;2022-10-31T06:20:07;14.70;99.90
9808;DHT22;4943;52.550;13.462;2022-10-31T06:22:36;14.70;99.90
9808;DHT22;4943;52.550;13.462;2022-10-31T06:25:04;14.70;99.90
9808;DHT22;4943;52.550;13.462;2022-10-31T06:27:33;14.70;99.90
9808;DHT22;4943;52.550;13.462;2022-10-31T06:30:01;14.80;99.90
9808;DHT22;4943;52.550;13.462;2022-10-31T06:32:31;14.80;99.90
9808;DHT22;4943;52.550;13.462;2022-10-31T06:35:00;14.80;99.90
9808;DHT22;4943;52.550;13.462;2022-10-31T06:37:28;14.90;99.90
9808;DHT22;4943;52.550;13.462;2022-10-31T06:39:56;14.90;99.90
9808;DHT22;4943;52.550;13.462;2022-10-31T06:42:25;14.90;99.90
9808;DHT22;4943;52.550;13.462;2022-10-31T06:44:53;14.90;99.90
9808;DHT22;4943;52.550;13.462;2022-10-31T06:47:22;14.90;99.90
9808;DHT22;4943;52.550;13.462;2022-10-31T06:49:52;14.90;99.90
9808;DHT22;4943;52.550;13.462;2022-10-31T06:52:20;14.90;99.90
9808;DHT22;4943;52.550;13.462;2022-10-31T06:54:50;14.90;99.90
9808;DHT22;4943;52.550;13.462;2022-10-31T06:57:18;14.90;99.90
9808;DHT22;4943;52.550;13.462;2022-10-31T06:59:47;15.00;99.90
9808;DHT22;4943;52.550;13.462;2022-10-31T07:02:15;15.00;99.90
9808;DHT22;4943;52.550;13.462;2022-10-31T07:04:44;15.00;99.90
9808;DHT22;4943;52.550;13.462;2022-10-31T07:07:14;15.10;99.90
9808;DHT22;4943;52.550;13.462;2022-10-31T07:09:42;15.10;99.90
9808;DHT22;4943;52.550;13.462;2022-10-31T07:12:10;15.20;99.90
9808;DHT22;4943;52.550;13.462;2022-10-31T07:14:38;15.30;99.90
9808;DHT22;4943;52.550;13.462;2022-10-31T07:17:06;15.40;99.90
9808;DHT22;4943;52.550;13.462;2022-10-31T07:19:35;15.40;99.90
9808;DHT22;4943;52.550;13.462;2022-10-31T07:22:03;15.50;99.90
9808;DHT22;4943;52.550;13.462;2022-10-31T07:24:33;15.60;99.90
9808;DHT22;4943;52.550;13.462;2022-10-31T07:27:01;15.60;99.90
9808;DHT22;4943;52.550;13.462;2022-10-31T07:29:29;15.70;99.90
9808;DHT22;4943;52.550;13.462;2022-10-31T07:31:57;15.80;99.90
9808;DHT22;4943;52.550;13.462;2022-10-31T07:34:25;15.80;99.90
9808;DHT22;4943;52.550;13.462;2022-10-31T07:36:54;15.90;99.90
9808;DHT22;4943;52.550;13.462;2022-10-31T07:39:22;16.00;99.90
9808;DHT22;4943;52.550;13.462;2022-10-31T07:41:52;16.00;99.90
9808;DHT22;4943;52.550;13.462;2022-10-31T07:44:20;16.10;99.90
9808;DHT22;4943;52.550;13.462;2022-10-31T07:46:48;16.20;99.90
9808;DHT22;4943;52.550;13.462;2022-10-31T07:49:16;16.10;99.90
9808;DHT22;4943;52.550;13.462;2022-10-31T07:51:45;16.10;99.90
9808;DHT22;4943;52.550;13.462;2022-10-31T07:54:13;16.10;99.90
9808;DHT22;4943;52.550;13.462;2022-10-31T07:56:41;16.10;99.90
9808;DHT22;4943;52.550;13.462;2022-10-31T07:59:11;16.10;99.90
9808;DHT22;4943;52.550;13.462;2022-10-31T08:01:40;16.00;99.90
9808;DHT22;4943;52.550;13.462;2022-10-31T08:04:08;16.00;99.90
9808;DHT22;4943;52.550;13.462;2022-10-31T08:06:37;16.00;99.90
9808;DHT22;4943;52.550;13.462;2022-10-31T08:09:05;16.00;99.90
9808;DHT22;4943;52.550;13.462;2022-10-31T08:11:33;16.00;99.90
9808;DHT22;4943;52.550;13.462;2022-10-31T08:14:01;16.00;99.90
9808;DHT22;4943;52.550;13.462;2022-10-31T08:16:31;16.00;99.90
9808;DHT22;4943;52.550;13.462;2022-10-31T08:18:59;16.10;99.90
9808;DHT22;4943;52.550;13.462;2022-10-31T08:21:28;16.10;99.90
9808;DHT22;4943;52.550;13.462;2022-10-31T08:23:56;16.10;99.90
9808;DHT22;4943;52.550;13.462;2022-10-31T08:26:25;16.10;99.90
9808;DHT22;4943;52.550;13.462;2022-10-31T08:28:53;16.10;99.90
9808;DHT22;4943;52.550;13.462;2022-10-31T08:31:21;16.10;99.90
9808;DHT22;4943;52.550;13.462;2022-10-31T08:33:59;16.10;99.90
9808;DHT22;4943;52.550;13.462;2022-10-31T08:36:28;16.10;99.90
9808;DHT22;4943;52.550;13.462;2022-10-31T08:38:56;16.10;99.90
9808;DHT22;4943;52.550;13.462;2022-10-31T08:41:28;16.10;99.90
9808;DHT22;4943;52.550;13.462;2022-10-31T08:43:57;16.10;99.90
9808;DHT22;4943;52.550;13.462;2022-10-31T08:46:25;16.10;99.90
9808;DHT22;4943;52.550;13.462;2022-10-31T08:48:53;16.10;99.90
9808;DHT22;4943;52.550;13.462;2022-10-31T08:51:23;16.10;99.90
9808;DHT22;4943;52.550;13.462;2022-10-31T08:53:51;16.10;99.90
9808;DHT22;4943;52.550;13.462;2022-10-31T08:56:19;16.20;99.90
9808;DHT22;4943;52.550;13.462;2022-10-31T08:58:49;16.20;99.90
9808;DHT22;4943;52.550;13.462;2022-10-31T09:01:17;16.20;99.90
9808;DHT22;4943;52.550;13.462;2022-10-31T09:03:46;16.20;99.90
9808;DHT22;4943;52.550;13.462;2022-10-31T09:06:14;16.30;99.90
9808;DHT22;4943;52.550;13.462;2022-10-31T09:08:44;16.30;99.90
9808;DHT22;4943;52.550;13.462;2022-10-31T09:11:13;16.40;99.90
9808;DHT22;4943;52.550;13.462;2022-10-31T09:13:41;16.30;99.90
9808;DHT22;4943;52.550;13.462;2022-10-31T09:16:09;16.40;99.90
9808;DHT22;4943;52.550;13.462;2022-10-31T09:18:38;16.40;99.90
9808;DHT22;4943;52.550;13.462;2022-10-31T09:21:07;16.40;99.90
9808;DHT22;4943;52.550;13.462;2022-10-31T09:23:35;16.40;99.90
9808;DHT22;4943;52.550;13.462;2022-10-31T09:26:05;16.50;99.90
9808;DHT22;4943;52.550;13.462;2022-10-31T09:28:33;16.50;99.90
9808;DHT22;4943;52.550;13.462;2022-10-31T09:31:07;16.60;99.90
9808;DHT22;4943;52.550;13.462;2022-10-31T09:33:37;16.60;99.90
9808;DHT22;4943;52.550;13.462;2022-10-31T09:36:06;16.60;99.90
9808;DHT22;4943;52.550;13.462;2022-10-31T09:38:35;16.70;99.90
9808;DHT22;4943;52.550;13.462;2022-10-31T09:41:19;16.70;99.90
9808;DHT22;4943;52.550;13.462;2022-10-31T09:43:57;16.70;99.90
9808;DHT22;4943;52.550;13.462;2022-10-31T09:46:32;16.80;99.90
9808;DHT22;4943;52.550;13.462;2022-10-31T09:49:22;16.70;99.90
9808;DHT22;4943;52.550;13.462;2022-10-31T09:51:57;16.70;99.90
9808;DHT22;4943;52.550;13.462;2022-10-31T09:54:32;16.70;99.90
9808;DHT22;4943;52.550;13.462;2022-10-31T09:57:05;16.70;99.90
9808;DHT22;4943;52.550;13.462;2022-10-31T09:59:35;16.70;99.90
9808;DHT22;4943;52.550;13.462;2022-10-31T10:02:13;16.70;99.90
9808;DHT22;4943;52.550;13.462;2022-10-31T10:04:48;16.70;99.90
9808;DHT22;4943;52.550;13.462;2022-10-31T10:07:28;16.70;99.90
9808;DHT22;4943;52.550;13.462;2022-10-31T10:10:02;16.80;99.90
9808;DHT22;4943;52.550;13.462;2022-10-31T10:12:47;16.80;99.90
9808;DHT22;4943;52.550;13.462;2022-10-31T10:15:41;16.90;99.90
9808;DHT22;4943;52.550;13.462;2022-10-31T10:18:23;17.00;99.90
9808;DHT22;4943;52.550;13.462;2022-10-31T10:21:03;17.00;99.90
9808;DHT22;4943;52.550;13.462;2022-10-31T10:23:47;17.10;99.90
9808;DHT22;4943;52.550;13.462;2022-10-31T10:26:19;17.20;99.90
9808;DHT22;4943;52.550;13.462;2022-10-31T10:28:56;17.20;99.90
9808;DHT22;4943;52.550;13.462;2022-10-31T10:31:35;17.30;99.90
9808;DHT22;4943;52.550;13.462;2022-10-31T10:34:10;17.40;99.90
9808;DHT22;4943;52.550;13.462;2022-10-31T10:36:42;17.40;99.90
9808;DHT22;4943;52.550;13.462;2022-10-31T10:39:16;17.40;99.90
9808;DHT22;4943;52.550;13.462;2022-10-31T10:41:47;17.50;99.90
9808;DHT22;4943;52.550;13.462;2022-10-31T10:44:31;17.50;99.90
9808;DHT22;4943;52.550;13.462;2022-10-31T10:47:18;17.60;99.90
9808;DHT22;4943;52.550;13.462;2022-10-31T10:50:10;17.60;99.90
9808;DHT22;4943;52.550;13.462;2022-10-31T10:52:48;17.60;99.90
9808;DHT22;4943;52.550;13.462;2022-10-31T10:55:29;17.70;99.90
9808;DHT22;4943;52.550;13.462;2022-10-31T10:58:06;17.70;99.90
9808;DHT22;4943;52.550;13.462;2022-10-31T11:00:41;17.70;99.90
9808;DHT22;4943;52.550;13.462;2022-10-31T11:03:17;17.80;99.90
9808;DHT22;4943;52.550;13.462;2022-10-31T11:05:49;17.80;99.90
9808;DHT22;4943;52.550;13.462;2022-10-31T11:08:25;17.80;99.90
9808;DHT22;4943;52.550;13.462;2022-10-31T11:10:59;17.90;99.90
9808;DHT22;4943;52.550;13.462;2022-10-31T11:13:30;17.90;99.90
9808;DHT22;4943;52.550;13.462;2022-10-31T11:16:03;17.90;99.90
9808;DHT22;4943;52.550;13.462;2022-10-31T11:18:37;17.90;99.90
9808;DHT22;4943;52.550;13.462;2022-10-31T11:21:20;17.90;99.90
9808;DHT22;4943;52.550;13.462;2022-10-31T11:23:49;17.90;99.90
9808;DHT22;4943;52.550;13.462;2022-10-31T11:26:20;17.90;99.90
9808;DHT22;4943;52.550;13.462;2022-10-31T11:29:02;18.00;99.90
9808;DHT22;4943;52.550;13.462;2022-10-31T11:31:32;18.00;99.90
9808;DHT22;4943;52.550;13.462;2022-10-31T11:34:06;18.00;99.90
9808;DHT22;4943;52.550;13.462;2022-10-31T11:36:43;18.10;99.90
9808;DHT22;4943;52.550;13.462;2022-10-31T11:39:18;18.10;99.90
9808;DHT22;4943;52.550;13.462;2022-10-31T11:41:52;18.10;99.90
9808;DHT22;4943;52.550;13.462;2022-10-31T11:44:25;18.20;99.90
9808;DHT22;4943;52.550;13.462;2022-10-31T11:46:57;18.20;99.90
9808;DHT22;4943;52.550;13.462;2022-10-31T11:49:30;18.20;99.90
9808;DHT22;4943;52.550;13.462;2022-10-31T11:52:04;18.30;99.90
9808;DHT22;4943;52.550;13.462;2022-10-31T11:54:41;18.30;99.90
9808;DHT22;4943;52.550;13.462;2022-10-31T11:57:23;18.30;99.90
9808;DHT22;4943;52.550;13.462;2022-10-31T11:59:53;18.30;99.90
9808;DHT22;4943;52.550;13.462;2022-10-31T12:02:25;18.30;99.90
9808;DHT22;4943;52.550;13.462;2022-10-31T12:05:00;18.40;99.90
9808;DHT22;4943;52.550;13.462;2022-10-31T12:07:30;18.40;99.90
9808;DHT22;4943;52.550;13.462;2022-10-31T12:09:59;18.40;99.90
9808;DHT22;4943;52.550;13.462;2022-10-31T12:12:41;18.40;99.90
9808;DHT22;4943;52.550;13.462;2022-10-31T12:15:29;18.40;99.90
9808;DHT22;4943;52.550;13.462;2022-10-31T12:18:32;18.50;99.90
9808;DHT22;4943;52.550;13.462;2022-10-31T12:21:14;18.50;99.90
9808;DHT22;4943;52.550;13.462;2022-10-31T12:23:53;18.50;99.90
9808;DHT22;4943;52.550;13.462;2022-10-31T12:26:33;18.50;99.90
9808;DHT22;4943;52.550;13.462;2022-10-31T12:29:18;18.50;99.90
9808;DHT22;4943;52.550;13.462;2022-10-31T12:32:00;18.60;99.90
9808;DHT22;4943;52.550;13.462;2022-10-31T12:34:48;18.60;99.90
9808;DHT22;4943;52.550;13.462;2022-10-31T12:37:30;18.60;99.90
9808;DHT22;4943;52.550;13.462;2022-10-31T12:40:20;18.60;99.90
9808;DHT22;4943;52.550;13.462;2022-10-31T12:43:04;18.60;99.90
9808;DHT22;4943;52.550;13.462;2022-10-31T12:45:43;18.60;99.90
9808;DHT22;4943;52.550;13.462;2022-10-31T12:48:27;18.60;99.90
9808;DHT22;4943;52.550;13.462;2022-10-31T12:51:04;18.60;99.90
9808;DHT22;4943;52.550;13.462;2022-10-31T12:53:47;18.70;99.90
9808;DHT22;4943;52.550;13.462;2022-10-31T12:56:34;18.70;99.90
9808;DHT22;4943;52.550;13.462;2022-10-31T12:59:20;18.70;99.90
9808;DHT22;4943;52.550;13.462;2022-10-31T13:01:53;18.80;99.90
9808;DHT22;4943;52.550;13.462;2022-10-31T13:04:37;18.80;99.90
9808;DHT22;4943;52.550;13.462;2022-10-31T13:07:15;18.90;99.90
9808;DHT22;4943;52.550;13.462;2022-10-31T13:09:51;18.90;99.90
9808;DHT22;4943;52.550;13.462;2022-10-31T13:12:23;18.90;99.90
9808;DHT22;4943;52.550;13.462;2022-10-31T13:14:54;19.00;99.90
9808;DHT22;4943;52.550;13.462;2022-10-31T13:17:29;19.00;99.90
9808;DHT22;4943;52.550;13.462;2022-10-31T13:20:13;19.00;99.90
9808;DHT22;4943;52.550;13.462;2022-10-31T13:22:50;19.10;99.90
9808;DHT22;4943;52.550;13.462;2022-10-31T13:25:24;19.10;99.90
9808;DHT22;4943;52.550;13.462;2022-10-31T13:27:58;19.10;99.90
9808;DHT22;4943;52.550;13.462;2022-10-31T13:30:33;19.10;99.90
9808;DHT22;4943;52.550;13.462;2022-10-31T13:33:09;19.10;99.90
9808;DHT22;4943;52.550;13.462;2022-10-31T13:35:43;19.10;99.90
9808;DHT22;4943;52.550;13.462;2022-10-31T13:38:23;19.10;99.90
9808;DHT22;4943;52.550;13.462;2022-10-31T13:41:04;19.10;99.90
9808;DHT22;4943;52.550;13.462;2022-10-31T13:43:50;19.20;99.90
9808;DHT22;4943;52.550;13.462;2022-10-31T13:46:35;19.20;99.90
9808;DHT22;4943;52.550;13.462;2022-10-31T13:49:19;19.20;99.90
9808;DHT22;4943;52.550;13.462;2022-10-31T13:51:49;19.20;99.90
9808;DHT22;4943;52.550;13.462;2022-10-31T13:54:32;19.20;99.90
9808;DHT22;4943;52.550;13.462;2022-10-31T13:57:01;19.30;99.90
9808;DHT22;4943;52.550;13.462;2022-10-31T13:59:34;19.30;99.90
9808;DHT22;4943;52.550;13.462;2022-10-31T14:02:15;19.30;99.90
9808;DHT22;4943;52.550;13.462;2022-10-31T14:04:47;19.20;99.90
9808;DHT22;4943;52.550;13.462;2022-10-31T14:07:21;19.20;99.90
9808;DHT22;4943;52.550;13.462;2022-10-31T14:09:56;19.20;99.90
9808;DHT22;4943;52.550;13.462;2022-10-31T14:12:29;19.10;99.90
9808;DHT22;4943;52.550;13.462;2022-10-31T14:15:05;19.10;99.90
9808;DHT22;4943;52.550;13.462;2022-10-31T14:17:46;19.00;99.90
9808;DHT22;4943;52.550;13.462;2022-10-31T14:20:37;19.00;99.90
9808;DHT22;4943;52.550;13.462;2022-10-31T14:23:37;19.00;99.90
9808;DHT22;4943;52.550;13.462;2022-10-31T14:26:35;19.00;99.90
9808;DHT22;4943;52.550;13.462;2022-10-31T14:29:26;18.90;99.90
9808;DHT22;4943;52.550;13.462;2022-10-31T14:31:59;18.90;99.90
9808;DHT22;4943;52.550;13.462;2022-10-31T14:34:30;18.80;99.90
9808;DHT22;4943;52.550;13.462;2022-10-31T14:37:12;18.80;99.90
9808;DHT22;4943;52.550;13.462;2022-10-31T14:39:54;18.80;99.90
9808;DHT22;4943;52.550;13.462;2022-10-31T14:42:39;18.70;99.90
9808;DHT22;4943;52.550;13.462;2022-10-31T14:45:32;18.70;99.90
9808;DHT22;4943;52.550;13.462;2022-10-31T14:48:12;18.70;99.90
9808;DHT22;4943;52.550;13.462;2022-10-31T14:50:47;18.60;99.90
9808;DHT22;4943;52.550;13.462;2022-10-31T14:53:24;18.50;99.90
9808;DHT22;4943;52.550;13.462;2022-10-31T14:55:56;18.40;99.90
9808;DHT22;4943;52.550;13.462;2022-10-31T14:58:37;18.40;99.90
9808;DHT22;4943;52.550;13.462;2022-10-31T15:01:07;18.30;99.90
9808;DHT22;4943;52.550;13.462;2022-10-31T15:03:46;18.20;99.90
9808;DHT22;4943;52.550;13.462;2022-10-31T15:06:44;18.20;99.90
9808;DHT22;4943;52.550;13.462;2022-10-31T15:09:24;18.10;99.90
9808;DHT22;4943;52.550;13.462;2022-10-31T15:11:53;18.00;99.90
9808;DHT22;4943;52.550;13.462;2022-10-31T15:14:25;17.90;99.90
9808;DHT22;4943;52.550;13.462;2022-10-31T15:16:57;17.90;99.90
9808;DHT22;4943;52.550;13.462;2022-10-31T15:19:28;17.90;99.90
9808;DHT22;4943;52.550;13.462;2022-10-31T15:21:57;17.90;99.90
9808;DHT22;4943;52.550;13.462;2022-10-31T15:24:31;17.70;99.90
9808;DHT22;4943;52.550;13.462;2022-10-31T15:27:03;17.70;99.90
9808;DHT22;4943;52.550;13.462;2022-10-31T15:29:34;17.60;99.90
9808;DHT22;4943;52.550;13.462;2022-10-31T15:32:18;17.60;99.90
9808;DHT22;4943;52.550;13.462;2022-10-31T15:34:47;17.50;99.90
9808;DHT22;4943;52.550;13.462;2022-10-31T15:37:17;17.40;99.90
9808;DHT22;4943;52.550;13.462;2022-10-31T15:39:48;17.40;99.90
9808;DHT22;4943;52.550;13.462;2022-10-31T15:42:21;17.40;99.90
9808;DHT22;4943;52.550;13.462;2022-10-31T15:44:55;17.30;99.90
9808;DHT22;4943;52.550;13.462;2022-10-31T15:47:27;17.30;99.90
9808;DHT22;4943;52.550;13.462;2022-10-31T15:49:57;17.20;99.90
9808;DHT22;4943;52.550;13.462;2022-10-31T15:52:30;17.20;99.90
9808;DHT22;4943;52.550;13.462;2022-10-31T15:55:03;17.10;99.90
9808;DHT22;4943;52.550;13.462;2022-10-31T15:57:39;17.10;99.90
9808;DHT22;4943;52.550;13.462;2022-10-31T16:00:23;17.00;99.90
9808;DHT22;4943;52.550;13.462;2022-10-31T16:03:03;16.90;99.90
9808;DHT22;4943;52.550;13.462;2022-10-31T16:05:37;16.90;99.90
9808;DHT22;4943;52.550;13.462;2022-10-31T16:08:22;16.80;99.90
9808;DHT22;4943;52.550;13.462;2022-10-31T16:10:52;16.80;99.90
9808;DHT22;4943;52.550;13.462;2022-10-31T16:13:25;16.80;99.90
9808;DHT22;4943;52.550;13.462;2022-10-31T16:15:59;16.70;99.90
9808;DHT22;4943;52.550;13.462;2022-10-31T16:18:50;16.70;99.90
9808;DHT22;4943;52.550;13.462;2022-10-31T16:21:29;16.70;99.90
9808;DHT22;4943;52.550;13.462;2022-10-31T16:24:01;16.70;99.90